Arkdale, Wisconsin
Current Conditions -  °F | °C
As of 8:58 AM on Friday 31 Oct 2014 (Local Time) from KVOK Reporting Station
Scattered Clouds Scattered Clouds  
Wind Chill: 23°   Ceiling: Unl
Heat Index: 34°   Visibility: 10mi
Dew Point: 23°   Wind: 17mph
Humidity: 65%   Direction: 340°NNW
Pressure: 30.36"   Gusts: 24mph
Location:  44.03°N, 89.89°W
Report Text: KVOK 311358Z 34015G21KT 10SM SCT036 01/M05 A3036 RMK AO2A SLP293
Loading
Personal Weather Stations






























Interactive Weather Map
Tropical Storm Tracking
New forecast layout! Learn more

10-Day Weather Forecast

Advertisements
Track Severe Weather on mobile